Time;durP1;ratioP1;P1;durP2;ratioP2;P2;SDS_P1;SDS_P2;PMS_P1;PMS_P2;Temp;Humidity;BMP_temperature;BMP_pressure;BME280_temperature;BME280_humidity;BME280_pressure;Samples;Min_cycle;Max_cycle;Signal;HPM_P1;HPM_P2
2021/12/17 00:01:00;;;;;;;;;4.00;3.00;;;;;8.49;70.56;103380.84;5034419;28;45460;-84
2021/12/17 00:03:37;;;;;;;;;3.75;2.00;;;;;8.39;70.96;103365.53;5022313;28;45543;-84
2021/12/17 00:08:37;;;;;;;;;2.25;1.50;;;;;8.52;70.60;103397.44;5023001;28;45303;-84
2021/12/17 00:11:05;;;;;;;;;5.00;4.00;;;;;8.46;70.98;103391.03;5025309;28;45237;-84
2021/12/17 00:13:31;;;;;;;;;4.75;4.75;;;;;8.09;70.96;103342.13;5036203;28;46022;-84
2021/12/17 00:15:56;;;;;;;;;5.00;4.00;;;;;8.38;71.10;103381.91;5046121;28;45200;-85
2021/12/17 00:18:32;;;;;;;;;5.75;2.00;;;;;8.36;71.04;103393.88;5044013;28;45349;-84
2021/12/17 00:51:24;;;;;;;;;7.00;4.00;;;;;8.26;71.92;103374.28;5045512;28;45571;-85
2021/12/17 00:53:40;;;;;;;;;3.50;3.50;;;;;8.29;71.33;103381.34;5045444;28;45398;-83
2021/12/17 00:56:05;;;;;;;;;2.00;2.00;;;;;8.08;71.61;103348.09;5060558;28;46053;-84
2021/12/17 00:58:31;;;;;;;;;3.75;2.50;;;;;7.43;71.34;103244.81;5045441;28;45350;-84
2021/12/17 01:00:56;;;;;;;;;7.25;5.00;;;;;8.02;71.26;103338.25;5035706;28;45750;-84
2021/12/17 01:03:21;;;;;;;;;3.25;2.75;;;;;7.97;71.64;103339.69;5027278;28;45457;-84
2021/12/17 01:05:47;;;;;;;;;5.00;3.00;;;;;7.99;72.12;103349.34;5027331;28;45319;-83
2021/12/17 01:08:13;;;;;;;;;4.50;3.00;;;;;7.57;71.72;103296.63;5026997;28;45329;-85
2021/12/17 01:10:43;;;;;;;;;2.00;2.00;;;;;8.04;72.11;103377.25;5026829;28;45301;-85
2021/12/17 01:13:10;;;;;;;;;2.25;2.25;;;;;7.99;72.13;103362.31;5025512;28;45331;-84
2021/12/17 01:15:37;;;;;;;;;2.75;1.00;;;;;7.10;71.94;103224.66;5036261;28;46287;-85
2021/12/17 01:18:08;;;;;;;;;2.00;2.00;;;;;7.96;72.15;103366.41;5044902;28;45335;-84
2021/12/17 01:21:25;;;;;;;;;3.50;3.00;;;;;7.97;72.03;103371.69;5045774;28;45561;-84
2021/12/17 01:36:36;;;;;;;;;3.00;2.00;;;;;8.01;71.47;103369.28;5064835;28;45412;-84
2021/12/17 01:44:08;;;;;;;;;3.25;3.25;;;;;7.99;71.88;103361.41;5053951;28;45215;-84
2021/12/17 01:46:38;;;;;;;;;6.00;3.25;;;;;7.73;71.44;103330.47;5055214;28;46270;-83
2021/12/17 01:55:48;;;;;;;;;1.75;1.75;;;;;7.26;71.61;103261.00;5049304;28;45326;-85
2021/12/17 02:00:03;;;;;;;;;4.75;4.00;;;;;7.65;71.60;103343.75;5024334;28;45368;-84
2021/12/17 02:02:30;;;;;;;;;3.00;1.50;;;;;7.58;72.17;103333.00;5025121;28;45266;-85
2021/12/17 02:04:56;;;;;;;;;4.50;2.75;;;;;7.28;71.79;103298.25;5025033;28;45441;-85
2021/12/17 02:07:21;;;;;;;;;1.50;1.50;;;;;7.48;71.80;103328.91;5025282;28;46320;-85
2021/12/17 02:29:08;;;;;;;;;6.00;2.75;;;;;7.15;72.04;103271.56;5044206;28;45317;-85
2021/12/17 02:31:34;;;;;;;;;3.75;3.75;;;;;6.61;71.64;103180.97;5046616;28;45226;-85
2021/12/17 02:34:08;;;;;;;;;1.00;1.00;;;;;7.16;71.95;103286.31;5065030;28;45227;-85
2021/12/17 02:36:35;;;;;;;;;3.00;3.00;;;;;7.20;71.76;103309.03;5051093;28;45399;-85
2021/12/17 02:39:24;;;;;;;;;3.00;2.00;;;;;7.08;71.66;103296.19;5043186;28;46326;-86
2021/12/17 02:47:17;;;;;;;;;4.50;4.50;;;;;7.53;71.74;103359.44;5046145;28;45228;-87
2021/12/17 02:49:44;;;;;;;;;2.25;2.25;;;;;7.17;71.56;103301.06;5043832;28;45674;-86
2021/12/17 02:52:12;;;;;;;;;3.25;1.50;;;;;7.54;72.12;103364.72;5044331;28;45347;-85
2021/12/17 02:54:38;;;;;;;;;3.00;2.75;;;;;7.40;72.20;103326.63;5045414;28;45238;-85
2021/12/17 02:57:05;;;;;;;;;3.00;2.75;;;;;6.79;71.81;103227.88;5044020;28;45215;-85
2021/12/17 02:59:36;;;;;;;;;3.00;2.25;;;;;6.70;71.73;103223.00;5042055;28;47578;-85
2021/12/17 03:02:04;;;;;;;;;4.00;2.50;;;;;7.51;71.70;103353.25;5043102;28;45370;-85
2021/12/17 03:04:31;;;;;;;;;2.75;2.75;;;;;6.86;71.79;103239.50;5044322;28;45232;-86
2021/12/17 03:06:57;;;;;;;;;4.75;3.00;;;;;7.26;71.79;103307.63;5060951;28;45486;-89
2021/12/17 03:09:41;;;;;;;;;2.00;2.00;;;;;7.37;72.12;103329.03;5059481;28;48028;-88
2021/12/17 03:12:15;;;;;;;;;2.50;2.50;;;;;7.36;72.36;103335.94;5047844;28;45445;-88
2021/12/17 03:14:49;;;;;;;;;6.50;3.00;;;;;7.40;71.70;103332.72;5047355;28;45181;-85
2021/12/17 03:17:24;;;;;;;;;2.50;2.50;;;;;7.45;72.11;103335.63;5029089;28;45255;-88
2021/12/17 03:25:06;;;;;;;;;2.25;2.25;;;;;7.06;71.81;103269.28;5012568;28;45453;-87
2021/12/17 03:27:32;;;;;;;;;1.50;1.50;;;;;7.19;72.08;103296.88;5048886;28;45558;-87
2021/12/17 03:29:57;;;;;;;;;3.75;2.00;;;;;7.10;72.08;103273.88;5073110;28;46449;-87
2021/12/17 03:32:23;;;;;;;;;3.00;3.00;;;;;6.54;71.66;103176.22;5057018;27;45387;-87
2021/12/17 03:34:50;;;;;;;;;5.50;3.25;;;;;6.67;71.65;103222.78;5042553;28;45304;-87
2021/12/17 03:37:15;;;;;;;;;4.75;2.00;;;;;7.26;71.72;103328.38;5032999;28;45226;-88
2021/12/17 03:39:41;;;;;;;;;9.50;5.00;;;;;6.78;72.21;103239.03;5023361;28;45329;-88
2021/12/17 03:42:07;;;;;;;;;2.00;2.00;;;;;7.17;71.98;103314.00;5051249;28;45313;-88
2021/12/17 03:44:33;;;;;;;;;4.75;4.25;;;;;7.12;72.15;103305.06;5038247;28;45409;-88
2021/12/17 03:46:59;;;;;;;;;6.00;4.00;;;;;6.81;71.66;103235.75;5034265;28;45688;-88
2021/12/17 03:49:25;;;;;;;;;4.25;3.00;;;;;7.13;71.81;103283.53;5037425;28;45547;-87
2021/12/17 03:52:04;;;;;;;;;2.75;2.75;;;;;7.08;72.07;103275.44;5033833;28;45274;-87
2021/12/17 03:54:29;;;;;;;;;3.00;3.00;;;;;6.96;72.07;103239.31;5023140;28;45259;-87
2021/12/17 03:56:55;;;;;;;;;3.75;3.75;;;;;6.68;71.83;103184.88;5028824;28;45433;-86
2021/12/17 03:59:20;;;;;;;;;3.50;2.25;;;;;7.11;71.92;103264.41;5054626;28;46204;-87
2021/12/17 04:01:45;;;;;;;;;1.50;1.25;;;;;7.61;71.34;103358.22;5022924;28;45225;-88
2021/12/17 04:04:11;;;;;;;;;4.75;3.75;;;;;7.56;71.85;103344.97;5038419;28;45224;-87
2021/12/17 04:06:37;;;;;;;;;4.75;3.25;;;;;7.35;71.84;103324.66;5038710;28;45260;-87
2021/12/17 04:09:03;;;;;;;;;3.50;3.00;;;;;7.58;71.90;103358.94;5055049;28;47802;-88
2021/12/17 04:11:30;;;;;;;;;5.25;4.00;;;;;6.75;71.79;103210.34;5063062;28;44861;-86
2021/12/17 04:13:57;;;;;;;;;2.00;1.25;;;;;6.81;71.59;103228.88;5038636;28;45363;-87
2021/12/17 04:16:30;;;;;;;;;2.00;2.00;;;;;7.34;71.90;103312.50;5040452;28;45172;-87
2021/12/17 04:18:58;;;;;;;;;3.50;2.25;;;;;7.21;71.33;103273.66;5041272;28;47174;-88
2021/12/17 04:21:25;;;;;;;;;4.00;3.75;;;;;7.59;71.65;103337.38;5044726;28;45878;-87
2021/12/17 04:23:54;;;;;;;;;6.00;3.00;;;;;7.43;71.53;103312.19;5047777;28;45267;-87
2021/12/17 04:26:21;;;;;;;;;3.00;2.00;;;;;6.90;71.32;103213.03;5032269;28;45440;-87
2021/12/17 04:28:50;;;;;;;;;3.00;1.25;;;;;7.27;72.05;103274.06;5045289;28;46622;-86
2021/12/17 04:31:17;;;;;;;;;2.00;1.75;;;;;7.65;71.93;103321.31;5030113;28;45304;-88
2021/12/17 04:33:43;;;;;;;;;2.75;1.75;;;;;7.42;72.20;103288.78;5062780;28;45471;-87
2021/12/17 04:36:13;;;;;;;;;5.25;2.50;;;;;7.08;72.26;103228.81;5037701;28;45640;-88
2021/12/17 04:38:39;;;;;;;;;2.50;2.25;;;;;7.67;71.99;103306.75;5032352;28;45373;-87
2021/12/17 04:41:50;;;;;;;;;8.25;5.25;;;;;7.14;71.61;103219.66;5044140;28;45284;-87
2021/12/17 04:46:29;;;;;;;;;3.50;2.00;;;;;7.58;71.91;103275.97;5045447;28;45323;-87
2021/12/17 04:59:50;;;;;;;;;3.00;3.00;;;;;7.82;72.33;103277.38;5046597;28;45305;-88
2021/12/17 05:02:17;;;;;;;;;3.00;3.00;;;;;7.73;72.40;103244.91;5032374;28;45499;-87
2021/12/17 05:04:43;;;;;;;;;5.00;3.00;;;;;7.97;72.00;103278.28;5045885;28;45411;-87
2021/12/17 05:07:12;;;;;;;;;3.25;3.25;;;;;7.64;71.85;103222.69;5044837;28;45525;-90
2021/12/17 05:22:56;;;;;;;;;3.25;3.25;;;;;7.99;71.65;103262.81;5025805;28;45418;-87
2021/12/17 05:25:21;;;;;;;;;2.75;2.25;;;;;8.33;71.88;103349.59;5026125;28;45453;-87
2021/12/17 05:27:47;;;;;;;;;5.00;3.25;;;;;7.91;72.03;103266.66;5025292;28;45378;-87
2021/12/17 05:30:12;;;;;;;;;3.50;2.25;;;;;7.91;71.76;103249.41;5028272;28;46392;-87
2021/12/17 05:32:38;;;;;;;;;3.25;3.00;;;;;8.20;71.71;103294.34;5054459;28;45339;-87
2021/12/17 05:35:04;;;;;;;;;2.25;1.00;;;;;7.85;72.29;103234.34;5067271;28;45301;-87
2021/12/17 05:37:29;;;;;;;;;3.75;2.00;;;;;7.90;71.83;103236.34;5066299;28;45480;-88
2021/12/17 05:39:54;;;;;;;;;3.00;2.00;;;;;8.14;72.28;103268.03;5066411;28;45518;-87
2021/12/17 05:42:20;;;;;;;;;2.50;2.50;;;;;8.16;71.96;103269.03;5025207;28;45445;-87
2021/12/17 05:44:51;;;;;;;;;5.50;3.75;;;;;8.29;71.93;103283.63;5025079;28;45366;-87
2021/12/17 05:47:17;;;;;;;;;3.00;1.25;;;;;7.85;71.73;103200.63;5025730;28;45267;-87
2021/12/17 05:49:42;;;;;;;;;4.00;2.00;;;;;8.36;71.73;103283.19;5037055;28;48030;-86
2021/12/17 05:52:07;;;;;;;;;6.00;3.00;;;;;8.60;72.27;103319.22;5035239;28;45335;-87
2021/12/17 05:54:33;;;;;;;;;1.00;1.00;;;;;8.53;71.79;103298.84;5035308;28;45304;-86
2021/12/17 05:56:59;;;;;;;;;2.50;1.50;;;;;7.91;71.55;103200.13;5035088;28;45405;-86
2021/12/17 05:59:32;;;;;;;;;3.25;3.25;;;;;8.06;71.99;103223.47;5038896;28;46381;-86
2021/12/17 06:01:57;;;;;;;;;4.00;4.00;;;;;7.91;71.29;103202.72;5035072;28;45501;-83
2021/12/17 06:04:22;;;;;;;;;2.00;2.00;;;;;8.57;71.56;103311.25;5026912;28;45433;-82
2021/12/17 06:06:49;;;;;;;;;1.25;1.25;;;;;8.31;71.74;103278.53;5033865;28;45540;-82
2021/12/17 06:09:14;;;;;;;;;3.50;3.50;;;;;8.37;71.73;103287.56;5031604;28;45769;-82
2021/12/17 06:11:40;;;;;;;;;3.75;3.75;;;;;8.14;72.37;103257.66;5040976;28;45315;-83
2021/12/17 06:14:05;;;;;;;;;6.75;3.00;;;;;8.56;71.77;103318.94;5024542;28;45569;-83
2021/12/17 06:16:33;;;;;;;;;3.00;1.50;;;;;8.58;72.24;103319.94;5022081;28;45875;-82
2021/12/17 06:19:00;;;;;;;;;2.00;2.00;;;;;8.31;71.73;103276.84;5042850;28;45317;-78
2021/12/17 06:21:25;;;;;;;;;1.25;1.25;;;;;8.57;71.99;103326.81;5043306;28;45312;-82
2021/12/17 06:23:51;;;;;;;;;3.00;2.00;;;;;8.60;71.88;103327.00;5044352;28;45286;-85
2021/12/17 06:26:16;;;;;;;;;2.00;1.50;;;;;7.87;72.04;103198.13;5039469;28;45172;-83
2021/12/17 06:28:42;;;;;;;;;2.00;1.75;;;;;7.98;71.80;103232.50;5038704;28;47121;-83
2021/12/17 06:31:07;;;;;;;;;2.75;1.00;;;;;8.08;72.13;103245.22;5023415;28;45362;-83
2021/12/17 06:33:32;;;;;;;;;3.25;2.75;;;;;8.57;72.17;103338.91;5039640;28;45415;-84
2021/12/17 06:35:58;;;;;;;;;2.00;1.00;;;;;7.89;72.00;103209.50;5043865;28;45327;-84
2021/12/17 06:38:24;;;;;;;;;2.00;2.00;;;;;8.59;72.31;103325.22;5042949;28;45434;-82
2021/12/17 06:40:53;;;;;;;;;1.25;1.00;;;;;8.15;72.15;103258.56;5032422;28;45441;-83
2021/12/17 06:43:21;;;;;;;;;3.75;3.00;;;;;8.56;72.28;103329.31;5035045;28;45499;-82
2021/12/17 06:45:59;;;;;;;;;2.00;1.75;;;;;8.39;72.46;103307.53;5034774;28;45503;-82
2021/12/17 06:48:28;;;;;;;;;2.00;2.00;;;;;8.05;72.24;103241.53;5024275;28;46242;-85
2021/12/17 07:17:43;;;;;;;;;4.50;2.00;;;;;8.57;72.44;103325.91;5037115;28;45420;-81
2021/12/17 07:28:49;;;;;;;;;3.50;3.50;;;;;8.13;72.57;103253.28;5041623;28;45472;-83
2021/12/17 07:33:46;;;;;;;;;1.75;0.00;;;;;8.67;72.42;103355.94;5061526;28;45223;-84
2021/12/17 07:36:15;;;;;;;;;4.00;2.00;;;;;8.41;72.54;103312.00;5062462;28;45400;-83
2021/12/17 07:38:48;;;;;;;;;2.75;1.00;;;;;8.24;72.79;103287.66;5046074;28;45523;-83
2021/12/17 07:41:14;;;;;;;;;1.00;0.00;;;;;8.46;72.91;103325.28;5042432;28;46134;-83
2021/12/17 07:43:41;;;;;;;;;2.25;2.00;;;;;7.90;72.55;103232.03;5043933;28;45248;-83
2021/12/17 07:46:12;;;;;;;;;9.00;4.00;;;;;8.16;72.49;103266.44;5046216;28;45198;-84
2021/12/17 07:48:39;;;;;;;;;2.75;2.75;;;;;8.56;73.11;103324.13;5046436;28;45318;-83
2021/12/17 07:51:08;;;;;;;;;4.00;2.50;;;;;7.86;72.86;103204.13;5043216;28;45515;-83
2021/12/17 07:53:34;;;;;;;;;3.25;3.25;;;;;8.81;72.82;103361.91;5043002;28;45161;-83
2021/12/17 07:56:01;;;;;;;;;7.25;4.50;;;;;8.82;72.75;103362.00;5046080;28;45267;-83
2021/12/17 07:58:28;;;;;;;;;2.75;1.75;;;;;8.69;72.57;103318.84;5050651;28;45300;-86
2021/12/17 08:00:54;;;;;;;;;4.50;4.25;;;;;8.40;72.81;103272.97;5034794;28;45779;-82
2021/12/17 08:03:20;;;;;;;;;2.75;2.50;;;;;8.46;72.44;103271.63;5042271;28;45393;-85
2021/12/17 08:05:45;;;;;;;;;2.75;2.25;;;;;8.93;72.39;103351.34;5037063;28;45468;-85
2021/12/17 08:08:11;;;;;;;;;3.75;2.00;;;;;8.16;72.57;103219.75;5045121;28;45495;-88
2021/12/17 08:10:36;;;;;;;;;3.50;2.00;;;;;8.40;72.53;103254.81;5037671;28;45575;-84
2021/12/17 08:13:02;;;;;;;;;6.75;2.00;;;;;8.43;72.67;103253.31;5036761;28;45689;-85
2021/12/17 08:15:39;;;;;;;;;1.50;1.50;;;;;8.38;72.91;103249.53;5054779;28;45445;-85
2021/12/17 08:26:24;;;;;;;;;1.00;1.00;;;;;8.32;72.67;103247.47;5036799;28;45456;-85
2021/12/17 08:31:27;;;;;;;;;5.50;2.75;;;;;8.56;73.18;103288.69;5033640;28;45434;-84
2021/12/17 08:33:53;;;;;;;;;2.50;2.50;;;;;8.55;73.30;103302.47;5042149;28;45908;-84
2021/12/17 08:36:18;;;;;;;;;1.75;0.75;;;;;8.28;72.94;103229.03;5046256;28;45603;-82
2021/12/17 08:38:45;;;;;;;;;1.50;1.50;;;;;8.89;73.21;103321.72;5040694;28;45509;-83
2021/12/17 08:41:12;;;;;;;;;2.00;1.00;;;;;8.71;72.80;103291.28;5029492;28;46425;-83
2021/12/17 08:43:38;;;;;;;;;1.25;1.25;;;;;8.61;73.06;103273.38;5039524;28;45299;-83
2021/12/17 08:46:04;;;;;;;;;1.50;1.50;;;;;9.13;73.11;103363.78;5039616;28;45444;-81
2021/12/17 08:48:30;;;;;;;;;3.50;3.50;;;;;8.98;72.62;103345.59;5037923;28;45576;-83
2021/12/17 08:50:55;;;;;;;;;2.00;2.00;;;;;9.18;72.90;103355.34;5034415;28;45405;-84
2021/12/17 08:53:21;;;;;;;;;0.00;0.00;;;;;9.13;72.96;103344.72;5030881;28;45485;-84
2021/12/17 08:55:46;;;;;;;;;1.50;1.50;;;;;8.77;72.96;103280.34;5033691;28;45820;-83
2021/12/17 08:58:14;;;;;;;;;3.25;3.25;;;;;8.79;73.17;103296.03;5040171;28;45835;-83
2021/12/17 09:00:41;;;;;;;;;4.50;2.50;;;;;8.98;73.23;103319.63;5027667;28;46116;-82
2021/12/17 09:03:09;;;;;;;;;1.25;1.25;;;;;8.95;72.90;103309.03;5037239;28;45376;-82
2021/12/17 09:05:37;;;;;;;;;1.75;1.00;;;;;9.27;73.12;103362.75;5039724;28;45353;-83
2021/12/17 09:08:03;;;;;;;;;2.00;2.00;;;;;8.93;73.14;103314.97;5048578;28;45403;-83
2021/12/17 09:10:29;;;;;;;;;2.75;1.00;;;;;8.94;72.73;103311.59;5038104;28;46173;-82
2021/12/17 09:12:54;;;;;;;;;2.75;1.75;;;;;9.01;72.87;103326.72;5042660;28;45319;-82
2021/12/17 09:15:20;;;;;;;;;2.00;2.00;;;;;8.86;72.62;103301.63;5036469;28;45318;-85
2021/12/17 09:17:46;;;;;;;;;5.00;2.25;;;;;8.96;72.65;103308.25;5039680;28;45297;-84
2021/12/17 09:20:11;;;;;;;;;4.00;2.00;;;;;9.17;72.98;103361.34;5035998;28;45497;-84
2021/12/17 09:22:37;;;;;;;;;4.00;1.50;;;;;8.71;72.35;103293.88;5042716;28;45468;-84
2021/12/17 09:25:03;;;;;;;;;2.00;2.00;;;;;8.65;73.10;103282.22;5038872;28;45538;-85
2021/12/17 09:27:29;;;;;;;;;1.00;1.00;;;;;8.90;72.97;103314.78;5042566;28;45341;-84
2021/12/17 09:29:54;;;;;;;;;2.25;0.00;;;;;9.29;72.86;103379.34;5040352;28;46299;-82
2021/12/17 09:32:21;;;;;;;;;1.25;1.25;;;;;8.46;72.99;103240.47;5039527;28;45316;-83
2021/12/17 09:34:46;;;;;;;;;1.75;1.75;;;;;9.32;72.92;103390.84;5042873;28;45306;-84
2021/12/17 09:37:13;;;;;;;;;1.50;1.50;;;;;8.65;72.71;103283.13;5041691;28;45651;-84
2021/12/17 09:39:39;;;;;;;;;2.75;2.50;;;;;8.54;72.77;103240.09;5037275;28;45516;-82
2021/12/17 09:42:05;;;;;;;;;0.00;0.00;;;;;9.35;72.86;103388.38;5040825;28;45416;-82
2021/12/17 09:44:30;;;;;;;;;2.00;2.00;;;;;8.79;72.67;103299.50;5043267;28;45437;-82
2021/12/17 09:46:57;;;;;;;;;2.00;1.75;;;;;9.35;72.77;103390.97;5043342;28;45263;-85
2021/12/17 09:49:23;;;;;;;;;2.00;1.00;;;;;8.89;72.86;103313.00;5042285;28;46493;-84
2021/12/17 09:51:49;;;;;;;;;2.25;0.50;;;;;9.35;72.97;103401.38;5043082;28;45432;-83
2021/12/17 09:54:16;;;;;;;;;1.00;1.00;;;;;8.73;72.42;103300.03;5042333;28;45482;-82
2021/12/17 09:56:41;;;;;;;;;1.75;1.00;;;;;9.41;72.78;103399.94;5037739;28;45335;-82
2021/12/17 09:59:07;;;;;;;;;2.00;0.75;;;;;8.95;72.66;103332.44;5037629;28;46317;-82
2021/12/17 10:01:37;;;;;;;;;3.75;2.75;;;;;8.59;72.68;103294.06;5038543;28;45635;-82
2021/12/17 10:04:17;;;;;;;;;6.00;3.00;;;;;9.40;72.70;103413.78;5045522;28;45469;-82
2021/12/17 10:06:43;;;;;;;;;3.50;1.50;;;;;9.35;73.04;103403.97;5043082;28;45561;-82
2021/12/17 10:09:09;;;;;;;;;1.00;1.00;;;;;9.04;72.84;103347.69;5039784;28;46123;-82
2021/12/17 10:11:34;;;;;;;;;2.00;2.00;;;;;9.32;72.67;103385.63;5057161;28;45485;-83
2021/12/17 10:14:22;;;;;;;;;1.50;1.50;;;;;8.68;72.47;103282.41;5039048;28;45464;-83
2021/12/17 10:16:48;;;;;;;;;2.75;2.75;;;;;8.90;73.05;103310.50;5044819;28;45391;-83
2021/12/17 10:19:49;;;;;;;;;1.50;1.50;;;;;9.48;72.70;103405.59;5039529;28;45522;-83
2021/12/17 10:22:18;;;;;;;;;2.75;2.25;;;;;9.24;72.88;103354.00;5046045;28;45324;-84
2021/12/17 10:25:21;;;;;;;;;3.00;3.00;;;;;9.36;72.53;103365.88;5042119;28;45382;-83
2021/12/17 10:27:46;;;;;;;;;1.00;1.00;;;;;9.32;72.92;103351.84;4998949;28;45459;-83
2021/12/17 10:30:21;;;;;;;;;2.00;1.75;;;;;9.45;72.21;103352.50;5026507;28;46301;-83
2021/12/17 10:32:53;;;;;;;;;2.75;2.00;;;;;9.63;72.47;103395.16;5046880;28;45476;-83
2021/12/17 10:35:22;;;;;;;;;1.25;1.00;;;;;9.66;71.96;103384.00;5038124;28;45368;-84
2021/12/17 10:37:56;;;;;;;;;1.50;1.50;;;;;9.27;72.04;103318.56;5046304;28;45947;-83
2021/12/17 10:41:03;;;;;;;;;3.25;2.75;;;;;9.68;72.16;103365.88;5054198;28;47359;-83
2021/12/17 10:43:36;;;;;;;;;5.75;1.50;;;;;9.74;71.94;103367.09;5032462;28;45485;-83
2021/12/17 10:48:54;;;;;;;;;2.25;1.00;;;;;9.76;71.84;103354.19;5043721;28;45324;-83
2021/12/17 10:53:58;;;;;;;;;1.00;1.00;;;;;9.37;71.78;103274.06;5037708;28;45627;-83
2021/12/17 10:56:26;;;;;;;;;1.75;1.75;;;;;9.87;71.67;103355.66;5034713;28;45469;-83
2021/12/17 10:59:01;;;;;;;;;1.50;1.25;;;;;9.49;71.65;103276.44;5042685;28;45578;-82
2021/12/17 11:01:31;;;;;;;;;2.25;1.50;;;;;9.95;71.44;103347.38;5031913;28;48060;-81
2021/12/17 11:04:23;;;;;;;;;3.75;2.50;;;;;9.38;71.25;103242.97;5041941;28;45386;-82
2021/12/17 11:06:49;;;;;;;;;2.00;2.00;;;;;9.87;71.20;103316.63;5035862;28;45473;-82
2021/12/17 11:09:45;;;;;;;;;2.00;2.00;;;;;10.01;71.06;103330.38;5040456;28;45381;-84
2021/12/17 11:12:13;;;;;;;;;7.75;3.00;;;;;10.04;70.98;103323.56;5041273;28;45603;-82
2021/12/17 11:14:43;;;;;;;;;3.25;2.00;;;;;9.65;71.20;103243.47;5041730;28;45499;-82
2021/12/17 11:17:14;;;;;;;;;1.50;1.25;;;;;9.75;70.98;103256.16;5042403;28;45188;-81
2021/12/17 11:19:41;;;;;;;;;1.75;1.00;;;;;9.72;70.78;103242.97;5041138;28;45619;-84
2021/12/17 11:22:07;;;;;;;;;2.00;2.00;;;;;10.07;70.52;103295.97;5040410;28;46048;-84
2021/12/17 11:24:34;;;;;;;;;3.50;2.50;;;;;10.19;70.48;103315.63;5042442;28;45383;-84
2021/12/17 11:27:05;;;;;;;;;1.75;1.75;;;;;10.11;70.43;103302.25;5040284;28;45309;-82
2021/12/17 11:29:31;;;;;;;;;3.50;2.00;;;;;10.24;70.03;103312.47;5035303;28;45675;-83
2021/12/17 11:32:00;;;;;;;;;5.75;2.00;;;;;10.18;70.02;103299.13;5033227;28;45468;-83
2021/12/17 11:34:27;;;;;;;;;7.25;3.25;;;;;10.14;70.14;103289.38;5032583;28;45290;-83
2021/12/17 11:36:54;;;;;;;;;5.00;2.00;;;;;10.17;69.92;103288.63;5039402;28;45345;-84
2021/12/17 11:39:31;;;;;;;;;3.00;2.25;;;;;10.26;69.86;103299.50;5037445;28;45564;-84
2021/12/17 11:42:29;;;;;;;;;2.00;2.00;;;;;10.25;69.50;103297.72;5036025;28;45378;-83
2021/12/17 11:47:46;;;;;;;;;2.50;2.00;;;;;10.22;69.40;103292.34;5042344;28;45491;-83
2021/12/17 11:50:16;;;;;;;;;2.50;1.00;;;;;10.13;68.90;103275.47;5045404;28;45508;-81
2021/12/17 11:52:49;;;;;;;;;3.25;2.00;;;;;10.11;69.01;103253.66;5049622;28;45370;-82
2021/12/17 11:55:36;;;;;;;;;2.25;2.25;;;;;10.19;69.10;103266.16;5040715;28;45462;-83
2021/12/17 11:58:07;;;;;;;;;2.00;2.00;;;;;10.30;68.29;103275.44;5044681;28;45389;-84
2021/12/17 12:00:49;;;;;;;;;1.25;1.25;;;;;9.76;67.99;103200.69;5040255;28;45470;-84
2021/12/17 12:03:19;;;;;;;;;1.25;0.75;;;;;10.34;67.56;103277.38;5032198;28;45593;-84
2021/12/17 12:05:47;;;;;;;;;6.00;4.25;;;;;10.36;67.69;103275.72;5036440;28;45464;-82
2021/12/17 12:08:39;;;;;;;;;1.00;1.00;;;;;9.99;67.21;103214.00;5037675;28;45450;-83
2021/12/17 12:11:11;;;;;;;;;1.25;0.00;;;;;10.28;67.06;103240.59;5044157;28;45402;-84
2021/12/17 12:13:40;;;;;;;;;4.00;1.75;;;;;10.41;66.97;103243.84;5046007;28;45338;-82
2021/12/17 12:16:07;;;;;;;;;2.00;2.00;;;;;10.32;66.81;103223.44;5044229;28;45292;-81
2021/12/17 12:18:46;;;;;;;;;2.50;2.50;;;;;10.47;66.93;103263.28;5045135;28;45394;-81
2021/12/17 12:21:15;;;;;;;;;1.50;1.00;;;;;10.44;66.34;103267.44;5044973;28;45327;-81
2021/12/17 12:23:44;;;;;;;;;2.00;2.00;;;;;10.08;66.69;103205.78;5038617;28;46013;-83
2021/12/17 12:26:16;;;;;;;;;5.50;2.75;;;;;10.26;66.31;103231.81;5035492;28;45518;-83
2021/12/17 12:28:47;;;;;;;;;3.75;1.75;;;;;10.40;66.32;103245.53;5045625;28;45292;-81
2021/12/17 12:31:13;;;;;;;;;2.00;1.00;;;;;10.34;66.16;103251.34;5037779;28;46205;-82
2021/12/17 12:34:00;;;;;;;;;3.50;2.50;;;;;10.36;66.64;103260.09;5042689;28;45347;-83
2021/12/17 12:37:00;;;;;;;;;3.75;3.75;;;;;10.36;66.56;103249.69;5049257;28;45594;-84
2021/12/17 12:39:35;;;;;;;;;1.75;1.75;;;;;9.89;66.28;103171.91;5057076;28;44831;-85
2021/12/17 12:42:21;;;;;;;;;0.25;0.25;;;;;10.25;65.85;103235.25;5057912;28;45455;-84
2021/12/17 12:44:47;;;;;;;;;3.00;2.00;;;;;10.40;65.95;103250.75;5051455;28;45766;-85
2021/12/17 12:47:20;;;;;;;;;2.00;1.50;;;;;10.41;65.72;103249.03;5044763;28;45313;-81
2021/12/17 12:49:54;;;;;;;;;0.75;0.75;;;;;10.43;65.37;103244.78;5045163;28;45526;-83
2021/12/17 12:52:31;;;;;;;;;1.00;1.00;;;;;10.48;65.55;103241.63;5040374;28;45555;-84
2021/12/17 12:54:57;;;;;;;;;2.25;2.25;;;;;10.52;65.28;103233.16;5044573;28;45467;-83
2021/12/17 12:57:25;;;;;;;;;3.50;2.00;;;;;10.55;65.40;103232.41;5036550;28;45387;-84
2021/12/17 12:59:57;;;;;;;;;6.00;2.00;;;;;10.47;65.75;103197.28;5044268;28;45252;-86
2021/12/17 13:02:26;;;;;;;;;1.50;1.50;;;;;10.56;65.70;103210.75;5038861;28;45560;-83
2021/12/17 13:04:54;;;;;;;;;1.25;1.25;;;;;10.54;65.31;103206.28;5039116;28;46104;-83
2021/12/17 13:07:41;;;;;;;;;2.00;2.00;;;;;10.33;65.33;103188.78;5039666;28;45797;-84
2021/12/17 13:10:17;;;;;;;;;2.75;1.00;;;;;10.47;65.10;103220.72;5048186;28;45345;-82
2021/12/17 13:12:49;;;;;;;;;4.25;1.75;;;;;10.20;65.46;103195.97;5051304;28;45213;-81
2021/12/17 13:15:33;;;;;;;;;2.25;2.25;;;;;10.31;65.20;103219.03;5041374;28;46023;-82
2021/12/17 13:24:11;;;;;;;;;0.75;0.75;;;;;10.19;65.49;103167.25;5014740;28;44948;-82
2021/12/17 13:26:40;;;;;;;;;3.25;1.50;;;;;9.80;65.61;103101.19;5046327;28;45703;-83
2021/12/17 13:29:09;;;;;;;;;5.75;3.00;;;;;9.93;65.71;103126.13;5040524;28;45307;-84
2021/12/17 13:31:57;;;;;;;;;0.75;0.50;;;;;10.44;65.22;103216.22;5038621;28;45452;-82
2021/12/17 13:34:28;;;;;;;;;2.50;1.50;;;;;10.42;65.46;103220.47;5041655;28;45297;-82
2021/12/17 13:37:12;;;;;;;;;2.00;1.00;;;;;10.33;65.35;103225.22;5044624;28;46250;-82
2021/12/17 13:39:44;;;;;;;;;0.00;0.00;;;;;9.94;65.31;103158.22;5044256;28;45289;-83
2021/12/17 13:42:15;;;;;;;;;2.25;1.00;;;;;10.22;65.52;103227.28;5043329;28;45231;-84
2021/12/17 13:44:49;;;;;;;;;0.00;0.00;;;;;10.22;65.72;103209.06;5040142;28;45407;-84
2021/12/17 13:47:30;;;;;;;;;4.00;2.00;;;;;9.88;65.47;103164.91;5040089;28;45458;-83
2021/12/17 13:49:58;;;;;;;;;1.25;1.25;;;;;10.17;65.61;103208.81;5044393;28;45324;-84
2021/12/17 13:52:27;;;;;;;;;0.50;0.50;;;;;10.12;65.52;103203.41;5043051;28;45397;-83
2021/12/17 13:54:54;;;;;;;;;1.00;1.00;;;;;9.73;65.68;103154.63;5038217;28;45507;-83
2021/12/17 13:57:23;;;;;;;;;2.00;2.00;;;;;9.25;65.58;103072.47;5041829;28;45471;-84
2021/12/17 13:59:49;;;;;;;;;1.50;1.50;;;;;10.07;65.83;103207.47;5046592;28;45370;-83
2021/12/17 14:02:18;;;;;;;;;1.75;1.75;;;;;9.88;65.91;103167.53;5040660;28;45431;-82
2021/12/17 14:05:02;;;;;;;;;0.50;0.50;;;;;9.77;66.13;103137.44;5047319;28;45383;-84
2021/12/17 14:07:33;;;;;;;;;2.25;2.25;;;;;9.71;66.06;103131.97;5042403;28;46293;-84
2021/12/17 14:10:06;;;;;;;;;0.75;0.75;;;;;10.12;66.23;103212.91;5044351;28;45314;-82
2021/12/17 14:12:38;;;;;;;;;5.75;2.75;;;;;10.07;66.29;103202.25;5046451;28;45254;-82
2021/12/17 14:15:07;;;;;;;;;2.25;2.00;;;;;10.06;66.12;103187.47;5045418;28;46393;-82
2021/12/17 14:17:35;;;;;;;;;1.50;1.00;;;;;9.98;66.33;103160.16;5043155;28;45366;-81
2021/12/17 14:20:07;;;;;;;;;1.00;1.00;;;;;10.13;66.52;103192.16;5042513;28;45510;-84
2021/12/17 14:22:35;;;;;;;;;2.00;2.00;;;;;10.11;66.49;103180.78;5042822;28;45476;-81
2021/12/17 14:25:00;;;;;;;;;0.75;0.75;;;;;10.07;66.74;103180.53;5043541;28;46498;-81
2021/12/17 14:27:47;;;;;;;;;1.00;1.00;;;;;9.80;66.46;103139.34;5049248;28;45460;-82
2021/12/17 14:30:13;;;;;;;;;0.50;0.50;;;;;9.15;66.42;103019.94;5036399;28;45244;-83
2021/12/17 14:32:44;;;;;;;;;1.00;1.00;;;;;9.72;66.39;103128.53;5033118;28;45817;-82
2021/12/17 14:35:09;;;;;;;;;3.00;1.25;;;;;10.00;66.70;103163.75;5038522;28;45445;-83
2021/12/17 14:37:54;;;;;;;;;3.00;3.00;;;;;9.88;66.77;103138.00;5061354;28;47151;-82
2021/12/17 14:40:24;;;;;;;;;0.75;0.75;;;;;9.76;66.09;103146.97;5042982;28;45449;-86
2021/12/17 14:42:51;;;;;;;;;1.00;1.00;;;;;9.71;66.07;103125.03;5041756;28;45215;-84